Time;durP1;ratioP1;P1;durP2;ratioP2;P2;SDS_P1;SDS_P2;PMS_P1;PMS_P2;Temp;Humidity;BMP_temperature;BMP_pressure;BME280_temperature;BME280_humidity;BME280_pressure;Samples;Min_cycle;Max_cycle;Signal;HPM_P1;HPM_P2
2022/01/31 00:01:58;;;;;;;;;;;;;;;;;;4393005;32;20403;-73
2022/01/31 00:04:23;;;;;;;21.25;8.60;;;;;;;;;;4391423;32;19942;-73
2022/01/31 00:06:49;;;;;;;;;;;;;;;;;;4390344;32;20097;-72
2022/01/31 00:09:17;;;;;;;26.67;9.15;;;;;;;;;;4393313;32;20319;-72
2022/01/31 00:11:52;;;;;;;37.50;9.63;;;;;;;;;;4393044;32;20026;-73
2022/01/31 00:14:30;;;;;;;30.25;10.40;;;;;;;;;;4389969;32;20071;-71
2022/01/31 00:16:55;;;;;;;38.65;10.50;;;;;;;;;;4392209;32;20409;-71
2022/01/31 00:19:20;;;;;;;;;;;;;;;;;;4391509;32;20049;-70
2022/01/31 00:21:46;;;;;;;20.90;10.52;;;;;;;;;;4393089;32;19996;-72
2022/01/31 00:24:11;;;;;;;;;;;;;;;;;;4392535;32;20053;-70
2022/01/31 00:26:36;;;;;;;24.67;11.12;;;;;;;;;;4401984;32;19942;-72
2022/01/31 00:29:01;;;;;;;;;;;;;;;;;;4392611;32;20399;-71
2022/01/31 00:31:26;;;;;;;22.83;11.02;;;;;;;;;;4393142;32;19950;-72
2022/01/31 00:33:51;;;;;;;;;;;;;;;;;;4391300;32;20168;-72
2022/01/31 00:36:17;;;;;;;30.80;12.85;;;;;;;;;;4390480;32;19987;-72
2022/01/31 00:38:42;;;;;;;;;;;;;;;;;;4396643;32;20026;-73
2022/01/31 00:41:07;;;;;;;37.45;17.70;;;;;;;;;;4392811;32;20301;-72
2022/01/31 00:43:35;;;;;;;;;;;;;;;;;;4401288;32;20048;-71
2022/01/31 00:46:03;;;;;;;;;;;;;;;;;;4399407;32;19971;-73
2022/01/31 00:48:33;;;;;;;28.73;13.32;;;;;;;;;;4407249;32;19938;-71
2022/01/31 00:50:58;;;;;;;39.50;18.08;;;;;;;;;;4394279;32;20071;-73
2022/01/31 00:53:23;;;;;;;;;;;;;;;;;;4394977;32;20438;-74
2022/01/31 00:55:49;;;;;;;34.92;15.93;;;;;;;;;;4401849;32;19964;-73
2022/01/31 00:58:14;;;;;;;;;;;;;;;;;;4394235;32;20118;-73
2022/01/31 01:00:39;;;;;;;29.25;14.82;;;;;;;;;;4396183;32;19969;-73
2022/01/31 01:03:04;;;;;;;;;;;;;;;;;;4394649;32;20412;-72
2022/01/31 01:05:29;;;;;;;40.92;15.13;;;;;;;;;;4399700;32;19983;-73
2022/01/31 01:07:54;;;;;;;;;;;;;;;;;;4392412;32;20046;-72
2022/01/31 01:10:20;;;;;;;34.05;14.25;;;;;;;;;;4394435;32;20010;-72
2022/01/31 01:12:45;;;;;;;;;;;;;;;;;;4393847;32;20041;-73
2022/01/31 01:15:10;;;;;;;38.00;14.50;;;;;;;;;;4390415;32;19976;-72
2022/01/31 01:17:35;;;;;;;;;;;;;;;;;;4392171;32;20140;-72
2022/01/31 01:20:01;;;;;;;43.58;15.43;;;;;;;;;;4395476;32;20269;-73
2022/01/31 01:22:26;;;;;;;;;;;;;;;;;;4394489;32;20045;-73
2022/01/31 01:24:51;;;;;;;27.40;14.25;;;;;;;;;;4395124;32;19942;-74
2022/01/31 01:27:19;;;;;;;;;;;;;;;;;;4390675;32;20115;-73
2022/01/31 01:29:46;;;;;;;30.42;13.57;;;;;;;;;;4390913;32;20079;-74
2022/01/31 01:32:11;;;;;;;23.35;12.27;;;;;;;;;;4388382;32;20461;-73
2022/01/31 01:34:36;;;;;;;;;;;;;;;;;;4392142;32;20018;-74
2022/01/31 01:37:03;;;;;;;24.12;12.98;;;;;;;;;;4400251;32;19933;-73
2022/01/31 01:39:28;;;;;;;29.20;13.62;;;;;;;;;;4398834;32;20022;-73
2022/01/31 01:41:53;;;;;;;;;;;;;;;;;;4390303;32;20140;-73
2022/01/31 01:44:18;;;;;;;23.08;9.00;;;;;;;;;;4399054;32;19942;-73
2022/01/31 01:46:43;;;;;;;;;;;;;;;;;;4397026;32;20122;-73
2022/01/31 01:49:09;;;;;;;25.80;8.85;;;;;;;;;;4392723;32;20400;-74
2022/01/31 01:51:34;;;;;;;;;;;;;;;;;;4395691;32;20049;-73
2022/01/31 01:53:59;;;;;;;22.77;7.30;;;;;;;;;;4392230;32;20369;-74
2022/01/31 01:56:24;;;;;;;;;;;;;;;;;;4390636;32;20022;-73
2022/01/31 01:58:50;;;;;;;25.10;6.68;;;;;;;;;;4388641;32;20385;-74
2022/01/31 02:01:15;;;;;;;;;;;;;;;;;;4400271;32;20082;-73
2022/01/31 02:03:40;;;;;;;25.95;7.07;;;;;;;;;;4394443;32;20020;-73
2022/01/31 02:06:05;;;;;;;;;;;;;;;;;;4394614;32;20022;-72
2022/01/31 02:08:39;;;;;;;37.40;7.82;;;;;;;;;;4404272;32;19938;-72
2022/01/31 02:11:04;;;;;;;36.70;7.65;;;;;;;;;;4397490;32;20142;-73
2022/01/31 02:13:29;;;;;;;;;;;;;;;;;;4390781;32;20018;-73
2022/01/31 02:15:54;;;;;;;24.00;5.62;;;;;;;;;;4390279;32;19933;-74
2022/01/31 02:18:24;;;;;;;;;;;;;;;;;;4394687;32;20044;-73
2022/01/31 02:20:49;;;;;;;33.70;5.22;;;;;;;;;;4391681;32;20006;-73
2022/01/31 02:23:17;;;;;;;;;;;;;;;;;;4396392;32;20438;-74
2022/01/31 02:25:55;;;;;;;34.90;8.15;;;;;;;;;;4391729;32;19949;-74
2022/01/31 02:28:21;;;;;;;27.00;7.18;;;;;;;;;;4404525;32;20084;-75
2022/01/31 02:30:46;;;;;;;;;;;;;;;;;;4405718;32;20022;-73
2022/01/31 02:33:11;;;;;;;22.67;5.32;;;;;;;;;;4406975;32;19961;-72
2022/01/31 02:35:36;;;;;;;;;;;;;;;;;;4404634;32;20049;-74
2022/01/31 02:38:02;;;;;;;24.90;4.05;;;;;;;;;;4407418;32;19937;-72
2022/01/31 02:40:27;;;;;;;29.90;5.22;;;;;;;;;;4395803;32;20122;-72
2022/01/31 02:42:52;;;;;;;;;;;;;;;;;;4404768;32;20023;-73
2022/01/31 02:45:18;;;;;;;25.33;4.43;;;;;;;;;;4397722;32;20299;-73
2022/01/31 02:47:50;;;;;;;;;;;;;;;;;;4393435;32;20565;-74
2022/01/31 02:50:16;;;;;;;21.60;3.85;;;;;;;;;;4405827;32;19981;-74
2022/01/31 02:52:46;;;;;;;;;;;;;;;;;;4408175;32;20415;-74
2022/01/31 02:55:11;;;;;;;20.80;4.45;;;;;;;;;;4403567;32;19942;-74
2022/01/31 02:57:36;;;;;;;;;;;;;;;;;;4405708;32;20048;-74
2022/01/31 03:00:02;;;;;;;19.45;3.22;;;;;;;;;;4401120;32;19949;-75
2022/01/31 03:02:28;;;;;;;;;;;;;;;;;;4392846;32;20072;-73
2022/01/31 03:04:53;;;;;;;18.55;3.50;;;;;;;;;;4392430;32;19937;-75
2022/01/31 03:07:18;;;;;;;;;;;;;;;;;;4394317;32;20062;-75
2022/01/31 03:09:43;;;;;;;20.95;3.80;;;;;;;;;;4392536;32;19937;-75
2022/01/31 03:12:09;;;;;;;;;;;;;;;;;;4402525;32;20079;-74
2022/01/31 03:14:34;;;;;;;21.95;3.25;;;;;;;;;;4396159;32;20290;-75
2022/01/31 03:17:04;;;;;;;;;;;;;;;;;;4393869;32;20026;-74
2022/01/31 03:19:29;;;;;;;17.42;3.40;;;;;;;;;;4392778;32;19969;-73
2022/01/31 03:21:54;;;;;;;;;;;;;;;;;;4394262;32;20077;-74
2022/01/31 03:24:19;;;;;;;23.15;3.33;;;;;;;;;;4392693;32;20385;-75
2022/01/31 03:26:44;;;;;;;;;;;;;;;;;;4392144;32;20084;-74
2022/01/31 03:29:09;;;;;;;15.35;3.72;;;;;;;;;;4392088;32;19964;-74
2022/01/31 03:31:34;;;;;;;;;;;;;;;;;;4393107;32;20014;-74
2022/01/31 03:34:00;;;;;;;25.05;4.07;;;;;;;;;;4391398;32;19935;-74
2022/01/31 03:36:25;;;;;;;19.55;3.72;;;;;;;;;;4395360;32;20208;-74
2022/01/31 03:38:50;;;;;;;;;;;;;;;;;;4401840;32;20084;-75
2022/01/31 03:41:17;;;;;;;18.17;2.90;;;;;;;;;;4394130;32;19976;-75
2022/01/31 03:43:42;;;;;;;13.18;2.72;;;;;;;;;;4399132;32;20014;-76
2022/01/31 03:46:07;;;;;;;;;;;;;;;;;;4392184;32;20053;-75
2022/01/31 03:48:32;;;;;;;24.80;4.03;;;;;;;;;;4395815;32;19950;-76
2022/01/31 03:50:58;;;;;;;;;;;;;;;;;;4400116;32;20022;-76
2022/01/31 03:53:23;;;;;;;17.98;3.45;;;;;;;;;;4394350;32;19933;-75
2022/01/31 03:55:48;;;;;;;;;;;;;;;;;;4405120;32;20054;-76
2022/01/31 03:58:13;;;;;;;21.20;3.78;;;;;;;;;;4407241;32;19937;-76
2022/01/31 04:00:38;;;;;;;;;;;;;;;;;;4401376;32;20170;-75
2022/01/31 04:03:04;;;;;;;26.75;3.47;;;;;;;;;;4391698;32;19953;-75
2022/01/31 04:05:29;;;;;;;;;;;;;;;;;;4392869;32;20467;-74
2022/01/31 04:07:54;;;;;;;15.20;3.50;;;;;;;;;;4392032;32;19934;-74
2022/01/31 04:10:19;;;;;;;;;;;;;;;;;;4391557;32;20026;-74
2022/01/31 04:12:45;;;;;;;24.35;3.90;;;;;;;;;;4391637;32;20346;-75
2022/01/31 04:15:10;;;;;;;;;;;;;;;;;;4390901;32;20022;-75
2022/01/31 04:17:37;;;;;;;19.85;3.67;;;;;;;;;;4396860;32;19970;-76
2022/01/31 04:20:02;;;;;;;16.40;3.17;;;;;;;;;;4398378;32;20147;-74
2022/01/31 04:22:31;;;;;;;;;;;;;;;;;;4398235;32;20034;-75
2022/01/31 04:25:00;;;;;;;12.63;3.90;;;;;;;;;;4398618;32;19937;-76
2022/01/31 04:27:28;;;;;;;20.52;3.08;;;;;;;;;;4404941;32;20089;-76
2022/01/31 04:29:54;;;;;;;14.48;2.92;;;;;;;;;;4397907;32;20019;-75
2022/01/31 04:32:19;;;;;;;;;;;;;;;;;;4392106;32;20100;-76
2022/01/31 04:34:44;;;;;;;20.67;3.65;;;;;;;;;;4390693;32;20327;-74
2022/01/31 04:37:10;;;;;;;;;;;;;;;;;;4394304;32;20022;-75
2022/01/31 04:39:35;;;;;;;19.70;4.20;;;;;;;;;;4400440;32;20315;-77
2022/01/31 04:42:01;;;;;;;;;;;;;;;;;;4395720;32;20100;-75
2022/01/31 04:44:26;;;;;;;14.05;2.78;;;;;;;;;;4395661;32;19938;-76
2022/01/31 04:46:51;;;;;;;;;;;;;;;;;;4406274;32;20408;-74
2022/01/31 04:49:17;;;;;;;21.90;3.50;;;;;;;;;;4405149;32;19949;-75
2022/01/31 04:51:42;;;;;;;;;;;;;;;;;;4395880;32;20023;-75
2022/01/31 04:54:07;;;;;;;17.37;3.60;;;;;;;;;;4395221;32;19952;-74
2022/01/31 04:56:33;;;;;;;;;;;;;;;;;;4406544;32;20118;-74
2022/01/31 04:58:58;;;;;;;17.92;4.28;;;;;;;;;;4405609;32;19994;-74
2022/01/31 05:01:23;;;;;;;;;;;;;;;;;;4404065;32;20431;-75
2022/01/31 05:03:49;;;;;;;16.45;3.42;;;;;;;;;;4398880;32;20052;-75
2022/01/31 05:06:17;;;;;;;;;;;;;;;;;;4392426;32;20080;-74
2022/01/31 05:08:43;;;;;;;18.67;3.08;;;;;;;;;;4388438;32;19949;-73
2022/01/31 05:11:10;;;;;;;;;;;;;;;;;;4397417;32;20102;-74
2022/01/31 05:13:37;;;;;;;24.10;4.43;;;;;;;;;;4404907;32;19948;-73
2022/01/31 05:16:02;;;;;;;15.02;3.15;;;;;;;;;;4401721;32;20058;-74
2022/01/31 05:18:28;;;;;;;;;;;;;;;;;;4400970;32;20017;-73
2022/01/31 05:20:53;;;;;;;20.00;4.43;;;;;;;;;;4404185;32;19995;-73
2022/01/31 05:23:18;;;;;;;24.05;3.87;;;;;;;;;;4403955;32;20442;-73
2022/01/31 05:25:43;;;;;;;;;;;;;;;;;;4404346;32;20487;-74
2022/01/31 05:28:08;;;;;;;25.36;4.84;;;;;;;;;;4406123;32;19972;-73
2022/01/31 05:30:34;;;;;;;24.37;4.47;;;;;;;;;;4404151;32;20093;-74
2022/01/31 05:32:59;;;;;;;;;;;;;;;;;;4398165;32;20574;-74
2022/01/31 05:35:24;;;;;;;23.08;4.43;;;;;;;;;;4391798;32;20334;-75
2022/01/31 05:37:49;;;;;;;;;;;;;;;;;;4394134;32;20080;-74
2022/01/31 05:40:14;;;;;;;13.43;4.05;;;;;;;;;;4403045;32;19938;-74
2022/01/31 05:42:39;;;;;;;;;;;;;;;;;;4405149;32;20018;-74
2022/01/31 05:45:06;;;;;;;15.20;4.93;;;;;;;;;;4402609;32;19946;-73
2022/01/31 05:47:33;;;;;;;22.73;4.75;;;;;;;;;;4389720;32;20365;-73
2022/01/31 05:49:58;;;;;;;23.50;4.00;;;;;;;;;;4390302;32;20022;-74
2022/01/31 05:52:23;;;;;;;;;;;;;;;;;;4390191;32;20089;-73
2022/01/31 05:54:48;;;;;;;29.33;4.28;;;;;;;;;;4389326;32;19981;-73
2022/01/31 05:57:13;;;;;;;;;;;;;;;;;;4396122;32;20060;-74
2022/01/31 05:59:39;;;;;;;25.42;3.85;;;;;;;;;;4388059;32;19938;-73
2022/01/31 06:02:04;;;;;;;;;;;;;;;;;;4401551;32;20052;-74
2022/01/31 06:04:30;;;;;;;26.77;4.25;;;;;;;;;;4404395;32;20299;-74
2022/01/31 06:06:55;;;;;;;;;;;;;;;;;;4395001;32;20091;-74
2022/01/31 06:09:20;;;;;;;14.10;3.83;;;;;;;;;;4398847;32;19990;-75
2022/01/31 06:11:48;;;;;;;;;;;;;;;;;;4404908;32;20053;-76
2022/01/31 06:14:14;;;;;;;15.23;3.45;;;;;;;;;;4391284;32;19986;-76
2022/01/31 06:16:39;;;;;;;;;;;;;;;;;;4397963;32;20046;-76
2022/01/31 06:19:04;;;;;;;25.08;4.80;;;;;;;;;;4389880;32;19938;-75
2022/01/31 06:21:29;;;;;;;;;;;;;;;;;;4391431;32;20043;-75
2022/01/31 06:23:54;;;;;;;31.98;4.47;;;;;;;;;;4402038;32;19948;-74
2022/01/31 06:26:21;;;;;;;;;;;;;;;;;;4406223;32;20469;-73
2022/01/31 06:28:47;;;;;;;24.63;4.18;;;;;;;;;;4403183;32;20281;-73
2022/01/31 06:31:12;;;;;;;16.95;4.68;;;;;;;;;;4396243;32;20368;-73
2022/01/31 06:33:37;;;;;;;;;;;;;;;;;;4391137;32;20034;-74
2022/01/31 06:36:02;;;;;;;23.90;4.53;;;;;;;;;;4394908;32;19956;-74
2022/01/31 06:38:28;;;;;;;;;;;;;;;;;;4406723;32;20123;-74
2022/01/31 06:40:54;;;;;;;14.23;3.60;;;;;;;;;;4394038;32;19953;-74
2022/01/31 06:43:19;;;;;;;;;;;;;;;;;;4401966;32;20057;-74
2022/01/31 06:45:44;;;;;;;28.08;5.70;;;;;;;;;;4392812;32;19941;-74
2022/01/31 06:48:09;;;;;;;;;;;;;;;;;;4405022;32;20406;-74
2022/01/31 06:50:34;;;;;;;16.23;4.12;;;;;;;;;;4399965;32;19942;-74
2022/01/31 06:53:01;;;;;;;;;;;;;;;;;;4392158;32;20022;-74
2022/01/31 06:55:28;;;;;;;28.80;5.25;;;;;;;;;;4397116;32;19942;-72
2022/01/31 06:57:53;;;;;;;27.52;4.45;;;;;;;;;;4394624;32;20015;-73
2022/01/31 07:00:18;;;;;;;;;;;;;;;;;;4393464;32;20386;-71
2022/01/31 07:02:44;;;;;;;36.67;5.07;;;;;;;;;;4397691;32;19941;-72
2022/01/31 07:05:09;;;;;;;;;;;;;;;;;;4394699;32;20447;-70
2022/01/31 07:07:35;;;;;;;34.95;6.10;;;;;;;;;;4400864;32;19964;-70
2022/01/31 07:10:01;;;;;;;;;;;;;;;;;;4406409;32;20026;-70
2022/01/31 07:12:32;;;;;;;41.20;6.62;;;;;;;;;;4404098;32;19968;-68
2022/01/31 07:14:58;;;;;;;24.92;5.20;;;;;;;;;;4403468;32;20026;-73
2022/01/31 07:17:23;;;;;;;;;;;;;;;;;;4399756;32;20089;-71
2022/01/31 07:19:48;;;;;;;33.45;5.00;;;;;;;;;;4405826;32;19945;-71
2022/01/31 07:22:14;;;;;;;;;;;;;;;;;;4399468;32;20041;-71
2022/01/31 07:24:51;;;;;;;33.72;5.65;;;;;;;;;;4401334;32;19988;-72
2022/01/31 07:27:16;;;;;;;37.65;7.78;;;;;;;;;;4399604;32;20036;-71
2022/01/31 07:29:41;;;;;;;;;;;;;;;;;;4397362;32;20026;-70
2022/01/31 07:32:10;;;;;;;30.17;5.05;;;;;;;;;;4396574;32;19942;-71
2022/01/31 07:34:37;;;;;;;25.12;5.10;;;;;;;;;;4402712;32;20018;-71
2022/01/31 07:37:02;;;;;;;34.85;5.72;;;;;;;;;;4397689;32;20053;-69
2022/01/31 07:39:27;;;;;;;;;;;;;;;;;;4397613;32;20027;-71
2022/01/31 07:41:52;;;;;;;37.78;5.45;;;;;;;;;;4395061;32;19934;-72
2022/01/31 07:44:17;;;;;;;;;;;;;;;;;;4392802;32;20455;-72
2022/01/31 07:46:43;;;;;;;33.63;6.15;;;;;;;;;;4391128;32;20354;-73
2022/01/31 07:49:08;;;;;;;;;;;;;;;;;;4397075;32;20135;-74
2022/01/31 07:51:35;;;;;;;44.90;7.04;;;;;;;;;;4397711;32;19938;-73
2022/01/31 07:54:01;;;;;;;36.80;5.28;;;;;;;;;;4398265;32;20046;-73
2022/01/31 07:56:26;;;;;;;;;;;;;;;;;;4398763;32;20344;-74
2022/01/31 07:58:51;;;;;;;28.98;4.80;;;;;;;;;;4398237;32;20362;-77
2022/01/31 08:01:17;;;;;;;;;;;;;;;;;;4397973;32;20154;-77
2022/01/31 08:03:42;;;;;;;35.97;5.03;;;;;;;;;;4399420;32;20323;-79
2022/01/31 08:06:07;;;;;;;;;;;;;;;;;;4393334;32;20023;-78
2022/01/31 08:08:34;;;;;;;32.65;6.97;;;;;;;;;;4395005;32;20279;-78
2022/01/31 08:11:00;;;;;;;40.03;6.45;;;;;;;;;;4397711;32;20057;-78
2022/01/31 08:13:25;;;;;;;;;;;;;;;;;;4406130;32;20083;-78
2022/01/31 08:18:32;;;;;;;36.53;6.75;;;;;;;;;;4405101;32;20030;-68
2022/01/31 08:20:57;;;;;;;;;;;;;;;;;;4405366;32;20518;-68
2022/01/31 08:23:22;;;;;;;31.83;5.40;;;;;;;;;;4406330;32;19980;-68
2022/01/31 08:25:49;;;;;;;31.30;6.10;;;;;;;;;;4407179;32;20084;-68
2022/01/31 08:28:15;;;;;;;36.92;5.00;;;;;;;;;;4405994;32;20174;-68
2022/01/31 08:30:52;;;;;;;;;;;;;;;;;;4411031;32;20094;-67
2022/01/31 08:33:43;;;;;;;33.20;5.55;;;;;;;;;;4412386;32;19941;-70
2022/01/31 08:36:05;;;;;;;36.22;5.75;;;;;;;;;;4405734;32;20071;-67
2022/01/31 08:38:30;;;;;;;43.25;5.53;;;;;;;;;;4405412;32;20395;-66
2022/01/31 08:40:55;;;;;;;;;;;;;;;;;;4401991;32;20057;-67
2022/01/31 08:43:20;;;;;;;43.40;6.78;;;;;;;;;;4399071;32;19959;-68
2022/01/31 08:45:45;;;;;;;;;;;;;;;;;;4390740;32;20091;-68
2022/01/31 08:48:11;;;;;;;29.73;5.95;;;;;;;;;;4391153;32;20243;-70
2022/01/31 08:50:36;;;;;;;;;;;;;;;;;;4391066;32;20027;-68
2022/01/31 08:53:01;;;;;;;33.50;6.82;;;;;;;;;;4392121;32;19965;-68
2022/01/31 08:55:26;;;;;;;;;;;;;;;;;;4390554;32;20153;-67
2022/01/31 08:57:55;;;;;;;36.78;7.62;;;;;;;;;;4391198;32;19942;-68
2022/01/31 09:00:20;;;;;;;35.38;6.18;;;;;;;;;;4398011;32;20062;-69
2022/01/31 09:03:01;;;;;;;;;;;;;;;;;;4392036;32;20466;-68
2022/01/31 09:05:26;;;;;;;53.30;9.05;;;;;;;;;;4391788;32;19968;-68
2022/01/31 09:07:51;;;;;;;;;;;;;;;;;;4401719;32;20022;-67
2022/01/31 09:10:18;;;;;;;46.70;8.88;;;;;;;;;;4393393;32;20322;-68
2022/01/31 09:12:43;;;;;;;37.88;9.75;;;;;;;;;;4406896;32;20122;-68
2022/01/31 09:15:12;;;;;;;;;;;;;;;;;;4406751;32;20077;-72
2022/01/31 09:17:37;;;;;;;42.42;10.20;;;;;;;;;;4406337;32;19999;-80
2022/01/31 09:20:02;;;;;;;;;;;;;;;;;;4399599;32;20115;-79
2022/01/31 09:22:27;;;;;;;58.10;9.60;;;;;;;;;;4392545;32;19944;-79
2022/01/31 09:24:53;;;;;;;;;;;;;;;;;;4391833;32;20072;-79
2022/01/31 09:27:18;;;;;;;42.60;6.47;;;;;;;;;;4395231;32;19957;-80
2022/01/31 09:29:43;;;;;;;;;;;;;;;;;;4389628;32;20034;-81
2022/01/31 09:32:10;;;;;;;49.80;9.55;;;;;;;;;;4390451;32;20310;-80
2022/01/31 09:34:35;;;;;;;53.95;9.70;;;;;;;;;;4393817;32;20450;-80
2022/01/31 09:37:00;;;;;;;;;;;;;;;;;;4392081;32;20042;-81
2022/01/31 09:39:26;;;;;;;43.30;7.82;;;;;;;;;;4393383;32;20298;-79
2022/01/31 09:41:55;;;;;;;;;;;;;;;;;;4393928;32;20196;-77
2022/01/31 09:44:39;;;;;;;44.65;8.63;;;;;;;;;;4395425;32;20368;-80
2022/01/31 09:47:19;;;;;;;39.95;9.38;;;;;;;;;;4398892;32;20031;-80
2022/01/31 09:49:45;;;;;;;43.22;8.88;;;;;;;;;;4397939;32;20029;-80
2022/01/31 09:52:10;;;;;;;;;;;;;;;;;;4391271;32;20328;-76
2022/01/31 09:54:35;;;;;;;41.00;8.63;;;;;;;;;;4392796;32;19965;-76
2022/01/31 09:57:00;;;;;;;;;;;;;;;;;;4390508;32;20023;-76
2022/01/31 09:59:26;;;;;;;37.05;7.85;;;;;;;;;;4390291;32;19947;-76
2022/01/31 10:01:55;;;;;;;;;;;;;;;;;;4393315;32;20515;-73
2022/01/31 10:04:25;;;;;;;31.35;7.10;;;;;;;;;;4396134;32;19971;-72
2022/01/31 10:06:55;;;;;;;38.97;6.68;;;;;;;;;;4392766;32;20081;-73
2022/01/31 10:09:21;;;;;;;43.22;7.80;;;;;;;;;;4394814;32;20100;-75
2022/01/31 10:12:09;;;;;;;38.65;7.05;;;;;;;;;;4394115;32;20087;-77
2022/01/31 10:17:24;;;;;;;41.25;8.75;;;;;;;;;;4390129;32;20148;-74
2022/01/31 10:19:50;;;;;;;42.92;7.43;;;;;;;;;;4396969;32;20134;-73
2022/01/31 10:22:17;;;;;;;40.55;8.60;;;;;;;;;;4401272;32;20073;-73
2022/01/31 10:24:43;;;;;;;32.28;7.20;;;;;;;;;;4402056;32;20450;-73
2022/01/31 10:27:10;;;;;;;50.90;8.35;;;;;;;;;;4391228;32;20057;-74
2022/01/31 10:29:36;;;;;;;52.35;9.05;;;;;;;;;;4398500;32;20084;-74
2022/01/31 10:32:01;;;;;;;;;;;;;;;;;;4391854;32;20109;-72
2022/01/31 10:34:28;;;;;;;57.05;8.93;;;;;;;;;;4391345;32;19938;-73
2022/01/31 10:36:53;;;;;;;41.50;7.47;;;;;;;;;;4389407;32;20041;-74
2022/01/31 10:45:23;;;;;;;39.38;8.48;;;;;;;;;;4396586;32;20505;-70
2022/01/31 10:50:45;;;;;;;48.03;10.63;;;;;;;;;;4406063;32;20067;-70
2022/01/31 10:53:11;;;;;;;56.55;10.10;;;;;;;;;;4400776;32;20325;-69
2022/01/31 10:55:36;;;;;;;;;;;;;;;;;;4406267;32;20427;-71
2022/01/31 10:58:05;;;;;;;56.35;10.57;;;;;;;;;;4399624;32;20358;-71
2022/01/31 11:00:34;;;;;;;42.85;8.05;;;;;;;;;;4403581;32;20417;-71
2022/01/31 11:03:19;;;;;;;43.15;9.70;;;;;;;;;;4407821;32;20110;-72
2022/01/31 11:05:48;;;;;;;55.40;11.25;;;;;;;;;;4394900;32;20435;-72
2022/01/31 11:08:13;;;;;;;37.95;8.95;;;;;;;;;;4394430;32;20076;-72
2022/01/31 11:10:38;;;;;;;;;;;;;;;;;;4394330;32;20011;-71
2022/01/31 11:13:04;;;;;;;53.35;10.80;;;;;;;;;;4408365;32;19933;-72
2022/01/31 11:15:29;;;;;;;;;;;;;;;;;;4399750;32;20074;-72
2022/01/31 11:17:58;;;;;;;53.78;8.95;;;;;;;;;;4393417;32;20334;-73
2022/01/31 11:20:23;;;;;;;62.25;13.05;;;;;;;;;;4398404;32;20071;-73
2022/01/31 11:22:54;;;;;;;;;;;;;;;;;;4393068;32;20054;-72
2022/01/31 11:25:22;;;;;;;34.60;8.73;;;;;;;;;;4392200;32;19970;-72
2022/01/31 11:27:48;;;;;;;49.60;9.07;;;;;;;;;;4400669;32;20034;-73
2022/01/31 11:30:13;;;;;;;60.85;11.77;;;;;;;;;;4392589;32;20030;-72
2022/01/31 11:32:41;;;;;;;;;;;;;;;;;;4394452;32;20018;-72
2022/01/31 11:35:07;;;;;;;48.20;10.05;;;;;;;;;;4395599;32;19930;-73
2022/01/31 11:37:32;;;;;;;;;;;;;;;;;;4420171;32;20059;-71
2022/01/31 11:40:02;;;;;;;45.42;9.05;;;;;;;;;;4405963;32;19938;-72
2022/01/31 11:42:28;;;;;;;55.38;10.68;;;;;;;;;;4407098;32;20153;-72
2022/01/31 11:44:53;;;;;;;;;;;;;;;;;;4407054;32;20048;-72
2022/01/31 11:47:22;;;;;;;45.33;9.82;;;;;;;;;;4405986;32;19946;-72
2022/01/31 11:49:52;;;;;;;60.12;10.55;;;;;;;;;;4404208;32;20121;-70
2022/01/31 11:52:18;;;;;;;47.83;10.55;;;;;;;;;;4391375;32;20027;-72
2022/01/31 11:54:43;;;;;;;;;;;;;;;;;;4390013;32;20066;-72
2022/01/31 11:57:16;;;;;;;47.80;9.20;;;;;;;;;;4392613;32;19934;-71
2022/01/31 11:59:42;;;;;;;53.72;10.15;;;;;;;;;;4390827;32;20393;-69
2022/01/31 12:02:07;;;;;;;;;;;;;;;;;;4392631;32;20113;-69
2022/01/31 12:04:33;;;;;;;42.60;10.32;;;;;;;;;;4394385;32;19951;-69
2022/01/31 12:06:58;;;;;;;52.05;9.82;;;;;;;;;;4406012;32;20093;-69
2022/01/31 12:09:25;;;;;;;;;;;;;;;;;;4401768;32;20080;-69
2022/01/31 12:11:51;;;;;;;58.78;10.90;;;;;;;;;;4390618;32;19934;-69
2022/01/31 12:14:23;;;;;;;;;;;;;;;;;;4391674;32;20018;-69
2022/01/31 12:17:01;;;;;;;45.83;10.15;;;;;;;;;;4392632;32;20354;-69
2022/01/31 12:22:02;;;;;;;51.00;9.82;;;;;;;;;;4395039;32;20379;-69
2022/01/31 12:24:27;;;;;;;70.25;11.10;;;;;;;;;;4396065;32;20461;-69
2022/01/31 12:26:53;;;;;;;;;;;;;;;;;;4397439;32;20053;-70
2022/01/31 12:29:38;;;;;;;48.38;9.93;;;;;;;;;;4393034;32;20303;-71
2022/01/31 12:32:20;;;;;;;53.30;12.13;;;;;;;;;;4390225;32;20065;-70
2022/01/31 12:34:48;;;;;;;59.63;10.38;;;;;;;;;;4391081;32;20018;-68
2022/01/31 12:37:16;;;;;;;60.47;9.27;;;;;;;;;;4390645;32;20358;-68
2022/01/31 12:39:43;;;;;;;56.05;9.75;;;;;;;;;;4390736;32;20057;-70
2022/01/31 12:42:44;;;;;;;62.45;11.10;;;;;;;;;;4391491;32;20361;-71
2022/01/31 12:45:09;;;;;;;51.85;9.25;;;;;;;;;;4390233;32;20015;-68
2022/01/31 12:47:34;;;;;;;;;;;;;;;;;;4390416;32;20386;-67
2022/01/31 12:50:38;;;;;;;59.83;12.52;;;;;;;;;;4390964;32;19979;-68
2022/01/31 12:53:06;;;;;;;49.85;11.27;;;;;;;;;;4328742;33;20102;-69
2022/01/31 12:55:34;;;;;;;56.75;11.00;;;;;;;;;;4328927;33;20075;-70
2022/01/31 12:57:59;;;;;;;52.62;11.90;;;;;;;;;;4359806;32;20022;-69
2022/01/31 13:00:24;;;;;;;;;;;;;;;;;;4391920;32;20023;-70
2022/01/31 13:02:49;;;;;;;61.92;12.90;;;;;;;;;;4391881;32;19937;-70
2022/01/31 13:05:15;;;;;;;;;;;;;;;;;;4390226;32;20049;-69
2022/01/31 13:07:40;;;;;;;63.95;11.10;;;;;;;;;;4388925;32;20011;-69
2022/01/31 13:10:05;;;;;;;;;;;;;;;;;;4391682;32;20023;-69
2022/01/31 13:12:30;;;;;;;56.88;8.93;;;;;;;;;;4392085;32;19976;-69
2022/01/31 13:14:55;;;;;;;;;;;;;;;;;;4399450;32;20045;-70
2022/01/31 13:17:23;;;;;;;51.35;9.65;;;;;;;;;;4405505;32;19937;-69
2022/01/31 13:19:54;;;;;;;62.08;12.70;;;;;;;;;;4404461;32;20367;-68
2022/01/31 13:22:40;;;;;;;55.42;10.65;;;;;;;;;;4391422;32;20061;-68
2022/01/31 13:25:10;;;;;;;64.25;10.95;;;;;;;;;;4390258;32;20387;-70
2022/01/31 13:27:40;;;;;;;57.53;9.73;;;;;;;;;;4391225;32;20060;-70
2022/01/31 13:30:06;;;;;;;46.30;11.50;;;;;;;;;;4388787;32;20088;-71
2022/01/31 13:32:33;;;;;;;73.12;10.43;;;;;;;;;;4395391;32;20433;-70
2022/01/31 13:35:19;;;;;;;48.78;8.15;;;;;;;;;;4403297;32;20104;-71
2022/01/31 13:37:44;;;;;;;40.28;9.57;;;;;;;;;;4398181;32;20060;-71
2022/01/31 13:40:09;;;;;;;;;;;;;;;;;;4395686;32;20078;-71
2022/01/31 13:42:37;;;;;;;40.70;6.82;;;;;;;;;;4390238;32;19993;-71
2022/01/31 13:45:04;;;;;;;37.40;7.47;;;;;;;;;;4401023;32;20130;-71
2022/01/31 13:47:35;;;;;;;52.58;11.30;;;;;;;;;;4395125;32;20365;-70
2022/01/31 13:50:03;;;;;;;34.95;9.75;;;;;;;;;;4396849;32;20403;-70
2022/01/31 13:52:33;;;;;;;62.10;10.65;;;;;;;;;;4400641;32;20042;-70
2022/01/31 13:54:58;;;;;;;72.12;11.75;;;;;;;;;;4389893;32;20039;-71
2022/01/31 13:57:23;;;;;;;;;;;;;;;;;;4396808;32;20031;-72
2022/01/31 13:59:49;;;;;;;39.45;8.30;;;;;;;;;;4394837;32;19960;-71
2022/01/31 14:02:14;;;;;;;;;;;;;;;;;;4392367;32;20035;-71
2022/01/31 14:04:41;;;;;;;52.10;9.00;;;;;;;;;;4391294;32;20010;-71
2022/01/31 14:07:26;;;;;;;51.00;10.75;;;;;;;;;;4393286;32;20053;-70
2022/01/31 14:09:53;;;;;;;45.90;10.23;;;;;;;;;;4390548;32;20035;-71
2022/01/31 14:12:18;;;;;;;45.85;10.35;;;;;;;;;;4391603;32;20050;-71
2022/01/31 14:14:43;;;;;;;;;;;;;;;;;;4401877;32;20056;-69
2022/01/31 14:17:08;;;;;;;52.05;11.30;;;;;;;;;;4403853;32;20250;-71
2022/01/31 14:19:33;;;;;;;;;;;;;;;;;;4400301;32;20023;-71
2022/01/31 14:21:59;;;;;;;52.50;9.00;;;;;;;;;;4391084;32;19987;-70
2022/01/31 14:24:25;;;;;;;;;;;;;;;;;;4402805;32;20057;-72
2022/01/31 14:26:52;;;;;;;41.85;7.93;;;;;;;;;;4407106;32;19979;-70
2022/01/31 14:29:17;;;;;;;52.70;9.13;;;;;;;;;;4401589;32;20059;-70
2022/01/31 14:31:43;;;;;;;;;;;;;;;;;;4396550;32;20097;-71
2022/01/31 14:34:09;;;;;;;43.60;8.20;;;;;;;;;;4398479;32;20350;-69
2022/01/31 14:36:37;;;;;;;41.22;9.23;;;;;;;;;;4397589;32;20419;-70
2022/01/31 14:39:33;;;;;;;55.50;10.57;;;;;;;;;;4395596;32;20088;-71
2022/01/31 14:42:36;;;;;;;49.65;8.20;;;;;;;;;;4395458;32;20049;-70
2022/01/31 14:47:51;;;;;;;46.03;9.10;;;;;;;;;;4405674;32;20053;-69
2022/01/31 14:50:18;;;;;;;55.15;11.30;;;;;;;;;;4404951;32;20103;-70
2022/01/31 14:52:44;;;;;;;52.92;10.20;;;;;;;;;;4405219;32;20410;-72
2022/01/31 14:55:09;;;;;;;;;;;;;;;;;;4406296;32;20416;-72
2022/01/31 14:57:35;;;;;;;34.28;8.40;;;;;;;;;;4405151;32;20267;-70
2022/01/31 15:00:00;;;;;;;52.10;10.18;;;;;;;;;;4399594;32;20467;-70
2022/01/31 15:02:25;;;;;;;;;;;;;;;;;;4395537;32;20026;-71
2022/01/31 15:04:51;;;;;;;49.53;8.88;;;;;;;;;;4392045;32;20286;-70
2022/01/31 15:07:16;;;;;;;;;;;;;;;;;;4391645;32;20122;-70
2022/01/31 15:09:42;;;;;;;56.47;10.32;;;;;;;;;;4392328;32;19985;-70
2022/01/31 15:12:07;;;;;;;;;;;;;;;;;;4392515;32;20145;-70
2022/01/31 15:14:32;;;;;;;41.83;8.45;;;;;;;;;;4393730;32;19937;-70
2022/01/31 15:16:57;;;;;;;;;;;;;;;;;;4399980;32;20486;-71
2022/01/31 15:19:22;;;;;;;52.97;10.15;;;;;;;;;;4398768;32;19948;-69
2022/01/31 15:21:48;;;;;;;;;;;;;;;;;;4400826;32;20058;-71
2022/01/31 15:24:15;;;;;;;54.08;9.27;;;;;;;;;;4396387;32;19938;-71
2022/01/31 15:26:40;;;;;;;47.75;8.82;;;;;;;;;;4406845;32;20030;-70
2022/01/31 15:29:05;;;;;;;;;;;;;;;;;;4397942;32;20071;-70
2022/01/31 15:31:31;;;;;;;52.83;10.45;;;;;;;;;;4407816;32;19948;-71